sensor_id;sensor_type;location;lat;lon;timestamp;P1;durP1;ratioP1;P2;durP2;ratioP2
12181;SDS011;6154;51.550;12.138;2022-08-11T00:01:11;7.80;;;1.33;;
12181;SDS011;6154;51.550;12.138;2022-08-11T00:03:45;1.92;;;1.15;;
12181;SDS011;6154;51.550;12.138;2022-08-11T00:06:15;1.90;;;1.20;;
12181;SDS011;6154;51.550;12.138;2022-08-11T00:08:52;3.85;;;1.60;;
12181;SDS011;6154;51.550;12.138;2022-08-11T00:11:21;1.77;;;1.35;;
12181;SDS011;6154;51.550;12.138;2022-08-11T00:14:00;4.28;;;1.33;;
12181;SDS011;6154;51.550;12.138;2022-08-11T00:16:30;5.82;;;1.35;;
12181;SDS011;6154;51.550;12.138;2022-08-11T00:19:00;1.20;;;1.08;;
12181;SDS011;6154;51.550;12.138;2022-08-11T00:21:29;1.05;;;0.95;;
12181;SDS011;6154;51.550;12.138;2022-08-11T00:24:24;2.08;;;1.15;;
12181;SDS011;6154;51.550;12.138;2022-08-11T00:27:28;6.40;;;1.58;;
12181;SDS011;6154;51.550;12.138;2022-08-11T00:29:58;8.40;;;1.33;;
12181;SDS011;6154;51.550;12.138;2022-08-11T00:32:27;2.22;;;1.20;;
12181;SDS011;6154;51.550;12.138;2022-08-11T00:34:57;3.50;;;1.12;;
12181;SDS011;6154;51.550;12.138;2022-08-11T00:37:48;1.23;;;1.02;;
12181;SDS011;6154;51.550;12.138;2022-08-11T00:40:22;3.15;;;1.10;;
12181;SDS011;6154;51.550;12.138;2022-08-11T00:42:57;1.30;;;1.20;;
12181;SDS011;6154;51.550;12.138;2022-08-11T00:45:51;3.78;;;1.08;;
12181;SDS011;6154;51.550;12.138;2022-08-11T00:48:38;1.37;;;1.20;;
12181;SDS011;6154;51.550;12.138;2022-08-11T00:54:34;2.00;;;1.23;;
12181;SDS011;6154;51.550;12.138;2022-08-11T00:57:39;1.50;;;1.40;;
12181;SDS011;6154;51.550;12.138;2022-08-11T01:00:25;2.30;;;1.02;;
12181;SDS011;6154;51.550;12.138;2022-08-11T01:03:05;4.45;;;1.52;;
12181;SDS011;6154;51.550;12.138;2022-08-11T01:05:54;0.93;;;0.88;;
12181;SDS011;6154;51.550;12.138;2022-08-11T01:08:42;4.40;;;1.27;;
12181;SDS011;6154;51.550;12.138;2022-08-11T01:11:45;1.48;;;1.20;;
12181;SDS011;6154;51.550;12.138;2022-08-11T01:21:01;1.30;;;1.05;;
12181;SDS011;6154;51.550;12.138;2022-08-11T01:24:28;1.27;;;1.17;;
12181;SDS011;6154;51.550;12.138;2022-08-11T01:27:42;1.67;;;1.17;;
12181;SDS011;6154;51.550;12.138;2022-08-11T01:40:16;1.00;;;0.90;;
12181;SDS011;6154;51.550;12.138;2022-08-11T01:43:00;1.52;;;1.30;;
12181;SDS011;6154;51.550;12.138;2022-08-11T01:45:58;1.37;;;1.20;;
12181;SDS011;6154;51.550;12.138;2022-08-11T01:48:34;2.85;;;2.20;;
12181;SDS011;6154;51.550;12.138;2022-08-11T01:51:14;3.95;;;1.35;;
12181;SDS011;6154;51.550;12.138;2022-08-11T01:53:51;1.52;;;1.00;;
12181;SDS011;6154;51.550;12.138;2022-08-11T01:56:28;2.05;;;1.00;;
12181;SDS011;6154;51.550;12.138;2022-08-11T01:59:13;1.20;;;1.10;;
12181;SDS011;6154;51.550;12.138;2022-08-11T02:01:48;2.20;;;1.50;;
12181;SDS011;6154;51.550;12.138;2022-08-11T02:04:30;4.15;;;1.33;;
12181;SDS011;6154;51.550;12.138;2022-08-11T02:07:03;2.17;;;1.30;;
12181;SDS011;6154;51.550;12.138;2022-08-11T02:09:42;2.62;;;1.08;;
12181;SDS011;6154;51.550;12.138;2022-08-11T02:12:35;1.35;;;1.20;;
12181;SDS011;6154;51.550;12.138;2022-08-11T02:15:21;1.83;;;1.30;;
12181;SDS011;6154;51.550;12.138;2022-08-11T02:17:58;1.30;;;1.20;;
12181;SDS011;6154;51.550;12.138;2022-08-11T02:20:34;1.15;;;0.82;;
12181;SDS011;6154;51.550;12.138;2022-08-11T02:23:26;2.37;;;1.30;;
12181;SDS011;6154;51.550;12.138;2022-08-11T02:26:29;2.55;;;1.90;;
12181;SDS011;6154;51.550;12.138;2022-08-11T02:29:04;2.08;;;1.20;;
12181;SDS011;6154;51.550;12.138;2022-08-11T02:31:41;3.45;;;1.73;;
12181;SDS011;6154;51.550;12.138;2022-08-11T02:35:00;3.20;;;1.30;;
12181;SDS011;6154;51.550;12.138;2022-08-11T02:37:40;1.77;;;1.12;;
12181;SDS011;6154;51.550;12.138;2022-08-11T02:40:17;2.47;;;1.30;;
12181;SDS011;6154;51.550;12.138;2022-08-11T02:42:56;2.08;;;1.30;;
12181;SDS011;6154;51.550;12.138;2022-08-11T02:45:45;1.23;;;1.08;;
12181;SDS011;6154;51.550;12.138;2022-08-11T02:48:24;1.40;;;1.08;;
12181;SDS011;6154;51.550;12.138;2022-08-11T02:51:19;1.33;;;1.23;;
12181;SDS011;6154;51.550;12.138;2022-08-11T02:53:56;2.53;;;1.40;;
12181;SDS011;6154;51.550;12.138;2022-08-11T02:56:36;1.73;;;1.30;;
12181;SDS011;6154;51.550;12.138;2022-08-11T02:59:16;1.00;;;0.95;;
12181;SDS011;6154;51.550;12.138;2022-08-11T03:02:13;2.28;;;1.25;;
12181;SDS011;6154;51.550;12.138;2022-08-11T03:04:57;2.95;;;1.42;;
12181;SDS011;6154;51.550;12.138;2022-08-11T03:07:33;2.22;;;1.10;;
12181;SDS011;6154;51.550;12.138;2022-08-11T03:10:09;2.05;;;1.17;;
12181;SDS011;6154;51.550;12.138;2022-08-11T03:12:46;3.75;;;1.23;;
12181;SDS011;6154;51.550;12.138;2022-08-11T03:15:40;2.25;;;1.37;;
12181;SDS011;6154;51.550;12.138;2022-08-11T03:18:32;1.65;;;1.40;;
12181;SDS011;6154;51.550;12.138;2022-08-11T03:21:08;4.28;;;1.65;;
12181;SDS011;6154;51.550;12.138;2022-08-11T03:23:46;1.83;;;1.30;;
12181;SDS011;6154;51.550;12.138;2022-08-11T03:26:25;1.83;;;1.55;;
12181;SDS011;6154;51.550;12.138;2022-08-11T03:29:00;1.70;;;1.42;;
12181;SDS011;6154;51.550;12.138;2022-08-11T03:31:35;1.55;;;1.23;;
12181;SDS011;6154;51.550;12.138;2022-08-11T03:34:14;2.12;;;1.35;;
12181;SDS011;6154;51.550;12.138;2022-08-11T03:36:52;2.08;;;1.50;;
12181;SDS011;6154;51.550;12.138;2022-08-11T03:39:49;2.33;;;1.40;;
12181;SDS011;6154;51.550;12.138;2022-08-11T03:42:27;1.30;;;1.10;;
12181;SDS011;6154;51.550;12.138;2022-08-11T03:45:04;3.25;;;1.33;;
12181;SDS011;6154;51.550;12.138;2022-08-11T03:47:48;1.85;;;1.50;;
12181;SDS011;6154;51.550;12.138;2022-08-11T03:50:42;3.40;;;1.37;;
12181;SDS011;6154;51.550;12.138;2022-08-11T03:53:27;2.35;;;1.60;;
12181;SDS011;6154;51.550;12.138;2022-08-11T03:56:12;1.55;;;1.23;;
12181;SDS011;6154;51.550;12.138;2022-08-11T03:59:06;1.90;;;1.65;;
12181;SDS011;6154;51.550;12.138;2022-08-11T04:05:16;1.52;;;1.20;;
12181;SDS011;6154;51.550;12.138;2022-08-11T04:08:18;4.40;;;1.45;;
12181;SDS011;6154;51.550;12.138;2022-08-11T04:14:25;3.97;;;1.65;;
12181;SDS011;6154;51.550;12.138;2022-08-11T04:17:47;1.02;;;0.93;;
12181;SDS011;6154;51.550;12.138;2022-08-11T04:20:37;1.23;;;0.95;;
12181;SDS011;6154;51.550;12.138;2022-08-11T04:23:24;1.50;;;1.40;;
12181;SDS011;6154;51.550;12.138;2022-08-11T04:26:33;1.73;;;1.27;;
12181;SDS011;6154;51.550;12.138;2022-08-11T04:29:44;3.75;;;1.58;;
12181;SDS011;6154;51.550;12.138;2022-08-11T04:32:39;1.52;;;1.40;;
12181;SDS011;6154;51.550;12.138;2022-08-11T04:35:31;1.52;;;1.25;;
12181;SDS011;6154;51.550;12.138;2022-08-11T04:41:32;2.05;;;1.35;;
12181;SDS011;6154;51.550;12.138;2022-08-11T04:45:06;2.00;;;1.50;;
12181;SDS011;6154;51.550;12.138;2022-08-11T04:47:59;2.45;;;1.90;;
12181;SDS011;6154;51.550;12.138;2022-08-11T04:50:59;3.28;;;1.60;;
12181;SDS011;6154;51.550;12.138;2022-08-11T04:53:57;2.03;;;1.45;;
12181;SDS011;6154;51.550;12.138;2022-08-11T04:56:55;1.30;;;1.15;;
12181;SDS011;6154;51.550;12.138;2022-08-11T04:59:59;2.50;;;1.62;;
12181;SDS011;6154;51.550;12.138;2022-08-11T05:03:07;2.65;;;1.60;;
12181;SDS011;6154;51.550;12.138;2022-08-11T05:09:09;2.97;;;1.48;;
12181;SDS011;6154;51.550;12.138;2022-08-11T05:11:52;3.08;;;1.52;;
12181;SDS011;6154;51.550;12.138;2022-08-11T05:14:32;4.50;;;1.55;;
12181;SDS011;6154;51.550;12.138;2022-08-11T05:17:22;1.87;;;1.62;;
12181;SDS011;6154;51.550;12.138;2022-08-11T05:20:15;2.10;;;1.40;;
12181;SDS011;6154;51.550;12.138;2022-08-11T05:23:03;1.37;;;1.12;;
12181;SDS011;6154;51.550;12.138;2022-08-11T05:25:54;2.37;;;1.40;;
12181;SDS011;6154;51.550;12.138;2022-08-11T05:29:02;2.15;;;1.95;;
12181;SDS011;6154;51.550;12.138;2022-08-11T05:31:54;1.23;;;1.12;;
12181;SDS011;6154;51.550;12.138;2022-08-11T05:34:43;1.85;;;1.30;;
12181;SDS011;6154;51.550;12.138;2022-08-11T05:37:21;2.50;;;1.70;;
12181;SDS011;6154;51.550;12.138;2022-08-11T05:39:59;3.05;;;1.60;;
12181;SDS011;6154;51.550;12.138;2022-08-11T05:42:54;3.22;;;1.55;;
12181;SDS011;6154;51.550;12.138;2022-08-11T05:45:43;3.30;;;1.52;;
12181;SDS011;6154;51.550;12.138;2022-08-11T05:48:35;1.95;;;1.50;;
12181;SDS011;6154;51.550;12.138;2022-08-11T05:51:21;5.80;;;1.70;;
12181;SDS011;6154;51.550;12.138;2022-08-11T05:54:23;7.15;;;2.05;;
12181;SDS011;6154;51.550;12.138;2022-08-11T05:57:17;9.50;;;1.62;;
12181;SDS011;6154;51.550;12.138;2022-08-11T06:00:09;4.75;;;2.05;;
12181;SDS011;6154;51.550;12.138;2022-08-11T06:02:39;4.35;;;2.05;;
12181;SDS011;6154;51.550;12.138;2022-08-11T06:05:09;3.87;;;1.75;;
12181;SDS011;6154;51.550;12.138;2022-08-11T06:07:40;5.55;;;2.55;;
12181;SDS011;6154;51.550;12.138;2022-08-11T06:10:24;7.75;;;1.98;;
12181;SDS011;6154;51.550;12.138;2022-08-11T06:12:54;5.90;;;2.00;;
12181;SDS011;6154;51.550;12.138;2022-08-11T06:15:29;3.65;;;2.08;;
12181;SDS011;6154;51.550;12.138;2022-08-11T06:18:00;4.15;;;1.90;;
12181;SDS011;6154;51.550;12.138;2022-08-11T06:20:29;2.00;;;1.77;;
12181;SDS011;6154;51.550;12.138;2022-08-11T06:23:03;3.95;;;2.22;;
12181;SDS011;6154;51.550;12.138;2022-08-11T06:25:34;2.92;;;2.30;;
12181;SDS011;6154;51.550;12.138;2022-08-11T06:28:04;5.68;;;2.35;;
12181;SDS011;6154;51.550;12.138;2022-08-11T06:30:36;3.03;;;2.65;;
12181;SDS011;6154;51.550;12.138;2022-08-11T06:33:07;5.20;;;2.22;;
12181;SDS011;6154;51.550;12.138;2022-08-11T06:35:43;2.58;;;2.03;;
12181;SDS011;6154;51.550;12.138;2022-08-11T06:38:27;4.47;;;2.25;;
12181;SDS011;6154;51.550;12.138;2022-08-11T06:41:06;6.00;;;2.12;;
12181;SDS011;6154;51.550;12.138;2022-08-11T06:44:08;5.30;;;2.08;;
12181;SDS011;6154;51.550;12.138;2022-08-11T06:46:44;6.95;;;2.67;;
12181;SDS011;6154;51.550;12.138;2022-08-11T06:49:17;3.90;;;2.67;;
12181;SDS011;6154;51.550;12.138;2022-08-11T06:52:05;6.35;;;2.37;;
12181;SDS011;6154;51.550;12.138;2022-08-11T06:54:55;4.78;;;2.70;;
12181;SDS011;6154;51.550;12.138;2022-08-11T06:57:32;3.87;;;2.45;;
12181;SDS011;6154;51.550;12.138;2022-08-11T07:00:18;5.80;;;2.45;;
12181;SDS011;6154;51.550;12.138;2022-08-11T07:03:00;2.75;;;2.35;;
12181;SDS011;6154;51.550;12.138;2022-08-11T07:05:38;7.15;;;2.47;;
12181;SDS011;6154;51.550;12.138;2022-08-11T07:08:19;3.83;;;2.45;;
12181;SDS011;6154;51.550;12.138;2022-08-11T07:11:34;4.28;;;2.30;;
12181;SDS011;6154;51.550;12.138;2022-08-11T07:14:40;3.85;;;2.78;;
12181;SDS011;6154;51.550;12.138;2022-08-11T07:17:34;3.33;;;2.70;;
12181;SDS011;6154;51.550;12.138;2022-08-11T07:20:08;3.20;;;2.20;;
12181;SDS011;6154;51.550;12.138;2022-08-11T07:22:56;3.62;;;2.70;;
12181;SDS011;6154;51.550;12.138;2022-08-11T07:25:46;4.45;;;2.33;;
12181;SDS011;6154;51.550;12.138;2022-08-11T07:28:36;3.67;;;3.00;;
12181;SDS011;6154;51.550;12.138;2022-08-11T07:31:32;7.12;;;3.28;;
12181;SDS011;6154;51.550;12.138;2022-08-11T07:34:05;4.00;;;3.10;;
12181;SDS011;6154;51.550;12.138;2022-08-11T07:36:46;5.18;;;2.95;;
12181;SDS011;6154;51.550;12.138;2022-08-11T07:39:18;3.72;;;2.08;;
12181;SDS011;6154;51.550;12.138;2022-08-11T07:41:48;2.83;;;2.40;;
12181;SDS011;6154;51.550;12.138;2022-08-11T07:44:18;10.55;;;3.17;;
12181;SDS011;6154;51.550;12.138;2022-08-11T07:46:48;5.50;;;3.60;;
12181;SDS011;6154;51.550;12.138;2022-08-11T07:49:35;3.53;;;3.22;;
12181;SDS011;6154;51.550;12.138;2022-08-11T07:52:24;5.62;;;3.20;;
12181;SDS011;6154;51.550;12.138;2022-08-11T07:55:00;3.75;;;3.20;;
12181;SDS011;6154;51.550;12.138;2022-08-11T07:57:33;4.18;;;3.17;;
12181;SDS011;6154;51.550;12.138;2022-08-11T08:00:41;7.22;;;3.10;;
12181;SDS011;6154;51.550;12.138;2022-08-11T08:03:37;5.12;;;3.12;;
12181;SDS011;6154;51.550;12.138;2022-08-11T08:06:23;3.20;;;2.80;;
12181;SDS011;6154;51.550;12.138;2022-08-11T08:09:13;5.70;;;3.22;;
12181;SDS011;6154;51.550;12.138;2022-08-11T08:12:03;5.10;;;2.90;;
12181;SDS011;6154;51.550;12.138;2022-08-11T08:14:50;5.18;;;2.67;;
12181;SDS011;6154;51.550;12.138;2022-08-11T08:17:38;3.60;;;3.00;;
12181;SDS011;6154;51.550;12.138;2022-08-11T08:20:44;3.53;;;3.08;;
12181;SDS011;6154;51.550;12.138;2022-08-11T08:23:13;4.12;;;2.90;;
12181;SDS011;6154;51.550;12.138;2022-08-11T08:25:44;4.75;;;3.80;;
12181;SDS011;6154;51.550;12.138;2022-08-11T08:28:15;6.22;;;3.03;;
12181;SDS011;6154;51.550;12.138;2022-08-11T08:30:44;5.53;;;3.03;;
12181;SDS011;6154;51.550;12.138;2022-08-11T08:33:18;3.35;;;2.58;;
12181;SDS011;6154;51.550;12.138;2022-08-11T08:35:52;4.65;;;3.05;;
12181;SDS011;6154;51.550;12.138;2022-08-11T08:38:39;5.95;;;2.60;;
12181;SDS011;6154;51.550;12.138;2022-08-11T08:41:09;4.47;;;2.78;;
12181;SDS011;6154;51.550;12.138;2022-08-11T08:43:42;5.28;;;2.58;;
12181;SDS011;6154;51.550;12.138;2022-08-11T08:46:20;5.43;;;3.17;;
12181;SDS011;6154;51.550;12.138;2022-08-11T08:48:53;7.50;;;2.78;;
12181;SDS011;6154;51.550;12.138;2022-08-11T08:51:23;5.22;;;2.65;;
12181;SDS011;6154;51.550;12.138;2022-08-11T08:54:24;5.28;;;2.65;;
12181;SDS011;6154;51.550;12.138;2022-08-11T08:57:01;3.62;;;2.25;;
12181;SDS011;6154;51.550;12.138;2022-08-11T08:59:31;2.53;;;2.28;;
12181;SDS011;6154;51.550;12.138;2022-08-11T09:02:15;4.82;;;2.30;;
12181;SDS011;6154;51.550;12.138;2022-08-11T09:05:05;3.60;;;2.25;;
12181;SDS011;6154;51.550;12.138;2022-08-11T09:07:36;5.78;;;2.20;;
12181;SDS011;6154;51.550;12.138;2022-08-11T09:10:06;5.90;;;2.00;;
12181;SDS011;6154;51.550;12.138;2022-08-11T09:12:38;4.40;;;2.30;;
12181;SDS011;6154;51.550;12.138;2022-08-11T09:15:09;3.12;;;1.65;;
12181;SDS011;6154;51.550;12.138;2022-08-11T09:17:42;3.17;;;1.83;;
12181;SDS011;6154;51.550;12.138;2022-08-11T09:20:12;4.45;;;1.77;;
12181;SDS011;6154;51.550;12.138;2022-08-11T09:22:45;4.95;;;2.00;;
12181;SDS011;6154;51.550;12.138;2022-08-11T09:25:54;3.65;;;1.87;;
12181;SDS011;6154;51.550;12.138;2022-08-11T09:28:42;5.93;;;2.62;;
12181;SDS011;6154;51.550;12.138;2022-08-11T09:31:12;3.45;;;2.15;;
12181;SDS011;6154;51.550;12.138;2022-08-11T09:33:41;3.05;;;2.37;;
12181;SDS011;6154;51.550;12.138;2022-08-11T09:36:11;3.08;;;2.50;;
12181;SDS011;6154;51.550;12.138;2022-08-11T09:38:59;2.40;;;2.20;;
12181;SDS011;6154;51.550;12.138;2022-08-11T09:41:47;1.58;;;1.30;;
12181;SDS011;6154;51.550;12.138;2022-08-11T09:44:29;1.75;;;1.15;;
12181;SDS011;6154;51.550;12.138;2022-08-11T09:47:19;1.67;;;1.20;;
12181;SDS011;6154;51.550;12.138;2022-08-11T09:49:50;1.10;;;1.00;;
12181;SDS011;6154;51.550;12.138;2022-08-11T09:52:20;1.15;;;1.12;;
12181;SDS011;6154;51.550;12.138;2022-08-11T09:54:50;1.70;;;1.25;;
12181;SDS011;6154;51.550;12.138;2022-08-11T09:57:20;2.47;;;1.48;;
12181;SDS011;6154;51.550;12.138;2022-08-11T10:00:09;1.25;;;1.15;;
12181;SDS011;6154;51.550;12.138;2022-08-11T10:02:41;3.78;;;1.52;;
12181;SDS011;6154;51.550;12.138;2022-08-11T10:05:13;1.87;;;1.05;;
12181;SDS011;6154;51.550;12.138;2022-08-11T10:08:01;1.17;;;0.98;;
12181;SDS011;6154;51.550;12.138;2022-08-11T10:10:33;1.37;;;1.20;;
12181;SDS011;6154;51.550;12.138;2022-08-11T10:13:04;1.77;;;1.67;;
12181;SDS011;6154;51.550;12.138;2022-08-11T10:15:56;3.87;;;1.40;;
12181;SDS011;6154;51.550;12.138;2022-08-11T10:18:43;3.47;;;1.25;;
12181;SDS011;6154;51.550;12.138;2022-08-11T10:21:25;1.50;;;1.40;;
12181;SDS011;6154;51.550;12.138;2022-08-11T10:23:59;1.40;;;1.23;;
12181;SDS011;6154;51.550;12.138;2022-08-11T10:26:46;1.85;;;1.17;;
12181;SDS011;6154;51.550;12.138;2022-08-11T10:29:22;1.30;;;1.20;;
12181;SDS011;6154;51.550;12.138;2022-08-11T10:32:12;1.33;;;1.20;;
12181;SDS011;6154;51.550;12.138;2022-08-11T10:35:23;2.10;;;1.58;;
12181;SDS011;6154;51.550;12.138;2022-08-11T10:37:53;1.50;;;1.40;;
12181;SDS011;6154;51.550;12.138;2022-08-11T10:40:36;1.87;;;1.30;;
12181;SDS011;6154;51.550;12.138;2022-08-11T10:43:06;1.27;;;1.17;;
12181;SDS011;6154;51.550;12.138;2022-08-11T10:45:40;2.10;;;1.70;;
12181;SDS011;6154;51.550;12.138;2022-08-11T10:48:30;1.15;;;0.98;;
12181;SDS011;6154;51.550;12.138;2022-08-11T10:51:03;1.42;;;1.33;;
12181;SDS011;6154;51.550;12.138;2022-08-11T10:53:41;2.20;;;1.48;;
12181;SDS011;6154;51.550;12.138;2022-08-11T10:56:29;2.15;;;1.30;;
12181;SDS011;6154;51.550;12.138;2022-08-11T10:59:18;1.80;;;1.30;;
12181;SDS011;6154;51.550;12.138;2022-08-11T11:01:48;1.87;;;1.35;;
12181;SDS011;6154;51.550;12.138;2022-08-11T11:04:21;1.80;;;1.40;;
12181;SDS011;6154;51.550;12.138;2022-08-11T11:07:03;6.47;;;1.50;;
12181;SDS011;6154;51.550;12.138;2022-08-11T11:09:40;1.50;;;1.40;;
12181;SDS011;6154;51.550;12.138;2022-08-11T11:12:12;2.35;;;1.30;;
12181;SDS011;6154;51.550;12.138;2022-08-11T11:15:04;1.73;;;1.60;;
12181;SDS011;6154;51.550;12.138;2022-08-11T11:17:52;2.55;;;1.58;;
12181;SDS011;6154;51.550;12.138;2022-08-11T11:20:29;1.50;;;1.27;;
12181;SDS011;6154;51.550;12.138;2022-08-11T11:23:13;2.00;;;1.60;;
12181;SDS011;6154;51.550;12.138;2022-08-11T11:25:49;1.90;;;1.15;;
12181;SDS011;6154;51.550;12.138;2022-08-11T11:28:45;4.15;;;1.30;;
12181;SDS011;6154;51.550;12.138;2022-08-11T11:31:27;1.95;;;1.27;;
12181;SDS011;6154;51.550;12.138;2022-08-11T11:34:11;1.30;;;1.20;;
12181;SDS011;6154;51.550;12.138;2022-08-11T11:36:47;1.23;;;1.12;;
12181;SDS011;6154;51.550;12.138;2022-08-11T11:39:18;1.42;;;1.20;;
12181;SDS011;6154;51.550;12.138;2022-08-11T11:41:51;1.30;;;1.10;;
12181;SDS011;6154;51.550;12.138;2022-08-11T11:44:21;1.52;;;1.42;;
12181;SDS011;6154;51.550;12.138;2022-08-11T11:46:50;1.52;;;1.27;;
12181;SDS011;6154;51.550;12.138;2022-08-11T11:49:19;3.42;;;1.62;;
12181;SDS011;6154;51.550;12.138;2022-08-11T11:51:57;2.17;;;1.40;;
12181;SDS011;6154;51.550;12.138;2022-08-11T11:54:26;2.58;;;1.30;;
12181;SDS011;6154;51.550;12.138;2022-08-11T11:56:58;1.67;;;1.40;;
12181;SDS011;6154;51.550;12.138;2022-08-11T11:59:47;3.10;;;1.40;;
12181;SDS011;6154;51.550;12.138;2022-08-11T12:02:35;2.95;;;1.35;;
12181;SDS011;6154;51.550;12.138;2022-08-11T12:05:07;1.40;;;1.30;;
12181;SDS011;6154;51.550;12.138;2022-08-11T12:07:38;3.33;;;1.55;;
12181;SDS011;6154;51.550;12.138;2022-08-11T12:10:38;1.58;;;1.20;;
12181;SDS011;6154;51.550;12.138;2022-08-11T12:13:07;6.35;;;1.35;;
12181;SDS011;6154;51.550;12.138;2022-08-11T12:15:53;4.25;;;1.30;;
12181;SDS011;6154;51.550;12.138;2022-08-11T12:18:42;2.00;;;1.23;;
12181;SDS011;6154;51.550;12.138;2022-08-11T12:21:15;2.15;;;1.30;;
12181;SDS011;6154;51.550;12.138;2022-08-11T12:23:45;2.05;;;1.45;;
12181;SDS011;6154;51.550;12.138;2022-08-11T12:26:32;1.73;;;1.40;;
12181;SDS011;6154;51.550;12.138;2022-08-11T12:29:39;1.60;;;1.33;;
12181;SDS011;6154;51.550;12.138;2022-08-11T12:32:10;2.83;;;1.50;;
12181;SDS011;6154;51.550;12.138;2022-08-11T12:34:39;1.70;;;1.23;;
12181;SDS011;6154;51.550;12.138;2022-08-11T12:37:07;1.40;;;1.30;;
12181;SDS011;6154;51.550;12.138;2022-08-11T12:39:45;4.32;;;1.55;;
12181;SDS011;6154;51.550;12.138;2022-08-11T12:42:53;1.40;;;1.27;;
12181;SDS011;6154;51.550;12.138;2022-08-11T12:45:48;1.92;;;1.23;;
12181;SDS011;6154;51.550;12.138;2022-08-11T12:48:25;2.30;;;1.17;;
12181;SDS011;6154;51.550;12.138;2022-08-11T12:51:27;1.00;;;1.00;;
12181;SDS011;6154;51.550;12.138;2022-08-11T12:54:40;2.22;;;1.65;;
12181;SDS011;6154;51.550;12.138;2022-08-11T12:57:13;1.50;;;1.30;;
12181;SDS011;6154;51.550;12.138;2022-08-11T13:00:04;0.80;;;0.80;;
12181;SDS011;6154;51.550;12.138;2022-08-11T13:02:51;1.33;;;1.20;;
12181;SDS011;6154;51.550;12.138;2022-08-11T13:05:39;1.40;;;1.30;;
12181;SDS011;6154;51.550;12.138;2022-08-11T13:08:11;1.20;;;1.10;;
12181;SDS011;6154;51.550;12.138;2022-08-11T13:10:42;1.62;;;1.50;;
12181;SDS011;6154;51.550;12.138;2022-08-11T13:13:29;3.12;;;1.35;;
12181;SDS011;6154;51.550;12.138;2022-08-11T13:16:18;1.33;;;1.15;;
12181;SDS011;6154;51.550;12.138;2022-08-11T13:18:49;4.97;;;1.35;;
12181;SDS011;6154;51.550;12.138;2022-08-11T13:21:19;1.02;;;1.00;;
12181;SDS011;6154;51.550;12.138;2022-08-11T13:23:49;1.37;;;1.15;;
12181;SDS011;6154;51.550;12.138;2022-08-11T13:26:29;2.35;;;1.42;;
12181;SDS011;6154;51.550;12.138;2022-08-11T13:29:15;1.48;;;1.37;;
12181;SDS011;6154;51.550;12.138;2022-08-11T13:31:44;2.45;;;1.40;;
12181;SDS011;6154;51.550;12.138;2022-08-11T13:34:13;3.92;;;1.40;;
12181;SDS011;6154;51.550;12.138;2022-08-11T13:36:42;3.78;;;1.25;;
12181;SDS011;6154;51.550;12.138;2022-08-11T13:39:11;1.60;;;1.00;;
12181;SDS011;6154;51.550;12.138;2022-08-11T13:41:41;1.55;;;1.25;;
12181;SDS011;6154;51.550;12.138;2022-08-11T13:44:14;2.03;;;1.10;;
12181;SDS011;6154;51.550;12.138;2022-08-11T13:46:51;1.20;;;1.10;;
12181;SDS011;6154;51.550;12.138;2022-08-11T13:49:21;1.87;;;1.10;;
12181;SDS011;6154;51.550;12.138;2022-08-11T13:51:50;2.50;;;1.30;;
12181;SDS011;6154;51.550;12.138;2022-08-11T13:54:20;1.35;;;1.10;;
12181;SDS011;6154;51.550;12.138;2022-08-11T13:56:53;1.37;;;1.10;;
12181;SDS011;6154;51.550;12.138;2022-08-11T13:59:23;1.58;;;1.48;;
12181;SDS011;6154;51.550;12.138;2022-08-11T14:01:57;3.05;;;1.23;;
12181;SDS011;6154;51.550;12.138;2022-08-11T14:04:52;4.97;;;1.50;;
12181;SDS011;6154;51.550;12.138;2022-08-11T14:07:23;1.50;;;1.17;;
12181;SDS011;6154;51.550;12.138;2022-08-11T14:09:55;1.42;;;1.10;;
12181;SDS011;6154;51.550;12.138;2022-08-11T14:12:26;3.42;;;1.33;;
12181;SDS011;6154;51.550;12.138;2022-08-11T14:15:17;2.05;;;1.40;;
12181;SDS011;6154;51.550;12.138;2022-08-11T14:17:51;2.35;;;1.30;;
12181;SDS011;6154;51.550;12.138;2022-08-11T14:20:22;1.33;;;1.15;;
12181;SDS011;6154;51.550;12.138;2022-08-11T14:23:14;2.28;;;1.00;;
12181;SDS011;6154;51.550;12.138;2022-08-11T14:25:42;1.52;;;1.15;;
12181;SDS011;6154;51.550;12.138;2022-08-11T14:28:30;4.80;;;1.30;;
12181;SDS011;6154;51.550;12.138;2022-08-11T14:31:11;1.87;;;1.33;;
12181;SDS011;6154;51.550;12.138;2022-08-11T14:33:42;2.62;;;1.17;;
12181;SDS011;6154;51.550;12.138;2022-08-11T14:36:28;8.00;;;1.40;;
12181;SDS011;6154;51.550;12.138;2022-08-11T14:39:00;1.40;;;1.20;;
12181;SDS011;6154;51.550;12.138;2022-08-11T14:41:30;1.50;;;1.12;;
12181;SDS011;6154;51.550;12.138;2022-08-11T14:44:38;1.45;;;1.20;;
12181;SDS011;6154;51.550;12.138;2022-08-11T14:47:26;1.05;;;0.93;;
12181;SDS011;6154;51.550;12.138;2022-08-11T14:49:57;2.65;;;1.10;;
12181;SDS011;6154;51.550;12.138;2022-08-11T14:52:39;1.52;;;1.30;;
12181;SDS011;6154;51.550;12.138;2022-08-11T14:55:12;1.95;;;1.00;;
12181;SDS011;6154;51.550;12.138;2022-08-11T14:58:00;3.00;;;1.42;;
12181;SDS011;6154;51.550;12.138;2022-08-11T15:00:30;2.08;;;1.45;;
12181;SDS011;6154;51.550;12.138;2022-08-11T15:03:02;1.50;;;1.40;;
12181;SDS011;6154;51.550;12.138;2022-08-11T15:05:38;5.55;;;2.95;;
12181;SDS011;6154;51.550;12.138;2022-08-11T15:08:23;3.67;;;1.33;;
12181;SDS011;6154;51.550;12.138;2022-08-11T15:11:15;2.03;;;1.45;;
12181;SDS011;6154;51.550;12.138;2022-08-11T15:14:04;2.10;;;1.33;;
12181;SDS011;6154;51.550;12.138;2022-08-11T15:16:37;2.85;;;1.30;;
12181;SDS011;6154;51.550;12.138;2022-08-11T15:19:39;2.10;;;1.05;;
12181;SDS011;6154;51.550;12.138;2022-08-11T15:22:30;1.40;;;1.30;;
12181;SDS011;6154;51.550;12.138;2022-08-11T15:25:17;3.03;;;1.05;;
12181;SDS011;6154;51.550;12.138;2022-08-11T15:27:47;1.25;;;1.15;;
12181;SDS011;6154;51.550;12.138;2022-08-11T15:30:36;1.50;;;1.27;;
12181;SDS011;6154;51.550;12.138;2022-08-11T15:33:35;2.78;;;1.50;;
12181;SDS011;6154;51.550;12.138;2022-08-11T15:36:24;0.80;;;0.80;;
12181;SDS011;6154;51.550;12.138;2022-08-11T15:39:12;3.08;;;1.33;;
12181;SDS011;6154;51.550;12.138;2022-08-11T15:41:49;2.33;;;1.55;;
12181;SDS011;6154;51.550;12.138;2022-08-11T15:44:40;2.03;;;1.30;;
12181;SDS011;6154;51.550;12.138;2022-08-11T15:47:32;1.95;;;1.30;;
12181;SDS011;6154;51.550;12.138;2022-08-11T15:50:08;3.10;;;1.00;;
12181;SDS011;6154;51.550;12.138;2022-08-11T15:52:46;1.27;;;1.20;;
12181;SDS011;6154;51.550;12.138;2022-08-11T15:55:19;1.50;;;1.20;;
12181;SDS011;6154;51.550;12.138;2022-08-11T15:57:49;3.12;;;1.33;;
12181;SDS011;6154;51.550;12.138;2022-08-11T16:00:37;4.55;;;1.33;;
12181;SDS011;6154;51.550;12.138;2022-08-11T16:03:38;2.25;;;1.23;;
12181;SDS011;6154;51.550;12.138;2022-08-11T16:06:36;1.87;;;1.35;;
12181;SDS011;6154;51.550;12.138;2022-08-11T16:09:29;0.85;;;0.85;;
12181;SDS011;6154;51.550;12.138;2022-08-11T16:12:14;1.17;;;1.10;;
12181;SDS011;6154;51.550;12.138;2022-08-11T16:14:45;1.50;;;1.12;;
12181;SDS011;6154;51.550;12.138;2022-08-11T16:17:36;1.55;;;1.08;;
12181;SDS011;6154;51.550;12.138;2022-08-11T16:20:10;5.00;;;1.15;;
12181;SDS011;6154;51.550;12.138;2022-08-11T16:22:42;2.75;;;1.12;;
12181;SDS011;6154;51.550;12.138;2022-08-11T16:25:32;1.30;;;1.20;;
12181;SDS011;6154;51.550;12.138;2022-08-11T16:28:21;1.73;;;1.33;;
12181;SDS011;6154;51.550;12.138;2022-08-11T16:30:52;1.55;;;1.45;;
12181;SDS011;6154;51.550;12.138;2022-08-11T16:33:21;4.10;;;1.20;;
12181;SDS011;6154;51.550;12.138;2022-08-11T16:36:13;1.12;;;1.05;;
12181;SDS011;6154;51.550;12.138;2022-08-11T16:39:16;1.80;;;1.27;;
12181;SDS011;6154;51.550;12.138;2022-08-11T16:41:45;1.25;;;1.15;;
12181;SDS011;6154;51.550;12.138;2022-08-11T16:44:53;2.45;;;1.20;;
12181;SDS011;6154;51.550;12.138;2022-08-11T16:47:41;2.60;;;1.33;;
12181;SDS011;6154;51.550;12.138;2022-08-11T16:50:31;3.58;;;1.10;;
12181;SDS011;6154;51.550;12.138;2022-08-11T16:52:59;2.80;;;1.75;;